createdAt,value
2018-02-04T00:00:52.670Z,8.93
2018-02-04T00:05:53.991Z,8.00
2018-02-04T00:10:55.331Z,7.60
2018-02-04T00:15:57.445Z,7.90
2018-02-04T00:20:58.763Z,7.40
2018-02-04T00:26:00.067Z,7.37
2018-02-04T00:31:01.434Z,7.10
2018-02-04T00:36:02.930Z,7.63
2018-02-04T00:41:04.275Z,6.87
2018-02-04T00:46:06.406Z,6.67
2018-02-04T00:51:07.747Z,7.47
2018-02-04T00:56:09.096Z,7.10
2018-02-04T01:01:10.614Z,6.47
2018-02-04T01:06:11.942Z,6.20
2018-02-04T01:11:13.276Z,6.57
2018-02-04T01:16:14.642Z,6.63
2018-02-04T01:21:16.687Z,5.40
2018-02-04T01:26:18.035Z,5.77
2018-02-04T01:31:19.623Z,6.53
2018-02-04T01:36:20.957Z,5.53
2018-02-04T01:41:22.298Z,6.33
2018-02-04T01:46:23.630Z,7.10
2018-02-04T01:51:24.947Z,7.77
2018-02-04T01:56:26.326Z,6.73
2018-02-04T02:01:27.758Z,7.97
2018-02-04T02:06:29.803Z,8.50
2018-02-04T02:11:31.195Z,7.90
2018-02-04T02:16:32.629Z,8.00
2018-02-04T02:21:34.016Z,9.07
2018-02-04T02:26:35.368Z,8.07
2018-02-04T02:31:36.717Z,7.80
2018-02-04T02:36:38.076Z,8.37
2018-02-04T02:41:39.447Z,8.57
2018-02-04T02:46:41.500Z,7.40
2018-02-04T02:51:43.583Z,8.50
2018-02-04T02:56:44.967Z,7.93
2018-02-04T03:01:46.307Z,8.33
2018-02-04T03:06:47.639Z,8.03
2018-02-04T03:11:48.989Z,8.50
2018-02-04T03:16:50.354Z,8.47
2018-02-04T03:21:52.415Z,8.40
2018-02-04T03:26:53.790Z,7.80
2018-02-04T03:31:55.133Z,7.40
2018-02-04T03:36:56.506Z,8.00
2018-02-04T03:41:57.866Z,8.63
2018-02-04T03:46:59.207Z,8.23
2018-02-04T03:52:00.552Z,7.80
2018-02-04T03:57:01.967Z,7.40
2018-02-04T04:02:03.347Z,7.97
2018-02-04T04:07:04.726Z,8.30
2018-02-04T04:12:06.064Z,7.60
2018-02-04T04:17:07.546Z,7.50
2018-02-04T04:22:09.628Z,7.40
2018-02-04T04:27:10.964Z,7.30
2018-02-04T04:32:12.278Z,8.20
2018-02-04T04:37:13.632Z,8.40
2018-02-04T04:42:14.933Z,6.80
2018-02-04T04:47:16.987Z,7.43
2018-02-04T04:52:18.350Z,7.37
2018-02-04T04:57:19.687Z,7.20
2018-02-04T05:02:21.171Z,7.97
2018-02-04T05:07:22.540Z,7.90
2018-02-04T05:12:23.881Z,8.60
2018-02-04T05:17:25.170Z,6.93
2018-02-04T05:22:27.238Z,8.40
2018-02-04T05:27:28.598Z,8.47
2018-02-04T05:32:29.923Z,8.13
2018-02-04T05:37:31.250Z,7.57
2018-02-04T05:42:32.581Z,8.53
2018-02-04T05:47:33.901Z,8.30
2018-02-04T05:52:35.246Z,8.47
2018-02-04T05:57:36.616Z,7.80
2018-02-04T06:02:38.683Z,8.80
2018-02-04T06:07:40.009Z,7.07
2018-02-04T06:12:42.071Z,8.33
2018-02-04T06:17:43.453Z,8.00
2018-02-04T06:22:44.824Z,8.50
2018-02-04T06:27:46.175Z,7.90
2018-02-04T06:32:48.326Z,7.77
2018-02-04T06:37:49.673Z,8.83
2018-02-04T06:42:51.745Z,9.20
2018-02-04T06:47:53.089Z,9.30
2018-02-04T06:52:54.444Z,10.20
2018-02-04T06:57:55.759Z,9.20
2018-02-04T07:02:57.887Z,8.87
2018-02-04T07:07:59.222Z,8.13
2018-02-04T07:13:00.572Z,7.47
2018-02-04T07:18:01.891Z,8.20
2018-02-04T07:23:03.297Z,7.23
2018-02-04T07:28:04.669Z,8.87
2018-02-04T07:33:06.022Z,9.23
2018-02-04T07:38:07.405Z,9.57
2018-02-04T07:43:08.766Z,9.77
2018-02-04T07:48:10.133Z,7.80
2018-02-04T07:53:11.470Z,7.23
2018-02-04T07:58:13.615Z,7.77
2018-02-04T08:03:14.995Z,8.10
2018-02-04T08:08:16.564Z,6.20
2018-02-04T08:13:18.735Z,5.10
2018-02-04T08:18:20.075Z,6.27
2018-02-04T08:23:21.431Z,6.70
2018-02-04T08:28:22.743Z,6.60
2018-02-04T08:33:24.820Z,6.30
2018-02-04T08:38:26.164Z,5.83
2018-02-04T08:43:27.486Z,5.80
2018-02-04T08:48:28.819Z,5.80
2018-02-04T08:53:30.147Z,5.47
2018-02-04T08:58:31.477Z,6.87
2018-02-04T09:03:32.808Z,6.00
2018-02-04T09:08:34.199Z,7.83
2018-02-04T09:13:35.568Z,6.70
2018-02-04T09:18:36.929Z,6.77
2018-02-04T09:23:38.303Z,7.00
2018-02-04T09:28:39.615Z,7.23
2018-02-04T09:33:40.977Z,6.33
2018-02-04T09:38:42.344Z,4.93
2018-02-04T09:43:43.659Z,5.33
2018-02-04T09:48:45.050Z,6.10
2018-02-04T09:53:46.444Z,6.13
2018-02-04T09:58:47.814Z,6.37
2018-02-04T10:03:49.144Z,7.33
2018-02-04T10:08:51.484Z,5.87
2018-02-04T10:13:52.803Z,6.80
2018-02-04T10:18:54.125Z,5.60
2018-02-04T10:23:55.498Z,5.43
2018-02-04T10:28:56.834Z,7.27
2018-02-04T10:33:58.175Z,7.40
2018-02-04T10:38:59.479Z,11.30
2018-02-04T10:44:00.810Z,9.43
2018-02-04T10:49:02.381Z,9.23
2018-02-04T10:54:04.450Z,7.30
2018-02-04T10:59:06.694Z,7.77
2018-02-04T11:04:08.794Z,8.40
2018-02-04T11:09:10.283Z,9.57
2018-02-04T11:14:11.604Z,10.10
2018-02-04T11:19:12.924Z,11.60
2018-02-04T11:24:14.366Z,11.10
2018-02-04T11:29:16.473Z,11.80
2018-02-04T11:34:18.520Z,11.43
2018-02-04T11:39:19.871Z,11.83
2018-02-04T11:44:21.218Z,11.00
2018-02-04T11:49:22.615Z,11.73
2018-02-04T11:54:24.014Z,10.60
2018-02-04T11:59:25.440Z,10.73
2018-02-04T12:04:26.758Z,10.20
2018-02-04T12:09:28.099Z,10.03
2018-02-04T12:14:29.428Z,9.73
2018-02-04T12:19:30.759Z,9.47
2018-02-04T12:24:32.084Z,11.80
2018-02-04T12:29:34.225Z,10.90
2018-02-04T12:34:35.572Z,11.43
2018-02-04T12:39:36.922Z,8.90
2018-02-04T12:44:39.106Z,11.40
2018-02-04T12:49:40.611Z,10.77
2018-02-04T12:54:41.958Z,9.80
2018-02-04T12:59:43.739Z,12.27
2018-02-04T13:04:45.185Z,14.97
2018-02-04T13:09:47.610Z,9.30
2018-02-04T13:14:49.100Z,9.70
2018-02-04T13:19:50.899Z,12.37
2018-02-04T13:24:52.343Z,15.93
2018-02-04T13:35:02.062Z,18.13
2018-02-04T13:40:04.691Z,42.37
2018-02-04T13:45:06.168Z,21.67
2018-02-04T13:50:07.595Z,11.53
2018-02-04T13:55:08.945Z,10.80
2018-02-04T14:00:12.142Z,14.37
2018-02-04T14:05:14.526Z,18.73
2018-02-04T14:10:16.020Z,7.87
2018-02-04T14:15:19.346Z,9.27
2018-02-04T14:20:20.730Z,9.10
2018-02-04T14:25:22.156Z,9.07
2018-02-04T14:30:24.251Z,10.80
2018-02-04T14:35:25.597Z,11.00
2018-02-04T14:40:26.924Z,11.37
2018-02-04T14:45:28.264Z,11.27
2018-02-04T14:50:29.607Z,15.17
2018-02-04T14:55:31.052Z,9.27
2018-02-04T15:00:32.383Z,9.63
2018-02-04T15:05:33.773Z,10.70
2018-02-04T15:10:35.090Z,13.77
2018-02-04T15:15:37.196Z,9.70
2018-02-04T15:20:39.344Z,9.43
2018-02-04T15:25:40.871Z,9.33
2018-02-04T15:30:42.213Z,9.67
2018-02-04T15:35:43.575Z,9.80
2018-02-04T15:40:45.632Z,11.00
2018-02-04T15:45:46.964Z,10.20
2018-02-04T15:50:49.040Z,12.33
2018-02-04T15:55:50.420Z,12.00
2018-02-04T16:00:51.761Z,12.57
2018-02-04T16:05:53.125Z,11.20
2018-02-04T16:10:54.481Z,11.37
2018-02-04T16:15:55.842Z,12.10
2018-02-04T16:20:57.188Z,11.50
2018-02-04T16:25:58.535Z,10.63
2018-02-04T16:30:59.902Z,9.80
2018-02-04T16:36:01.996Z,8.67
2018-02-04T16:41:03.354Z,9.60
2018-02-04T16:46:04.776Z,10.60
2018-02-04T16:51:06.206Z,11.17
2018-02-04T16:56:07.600Z,10.70
2018-02-04T17:01:08.960Z,10.70
2018-02-04T17:06:11.039Z,13.20
2018-02-04T17:11:12.375Z,13.13
2018-02-04T17:16:14.126Z,12.33
2018-02-04T17:21:15.510Z,12.30
2018-02-04T17:26:16.940Z,11.70
2018-02-04T17:31:18.370Z,12.10
2018-02-04T17:36:19.731Z,11.60
2018-02-04T17:41:21.087Z,10.43
2018-02-04T17:46:22.464Z,11.47
2018-02-04T17:51:23.823Z,11.97
2018-02-04T17:56:27.270Z,11.57
2018-02-04T18:01:28.911Z,10.80
2018-02-04T18:06:30.265Z,11.90
2018-02-04T18:11:31.623Z,12.40
2018-02-04T18:16:32.984Z,12.33
2018-02-04T18:21:34.332Z,11.93
2018-02-04T18:26:35.688Z,12.97
2018-02-04T18:31:37.048Z,12.87
2018-02-04T18:36:38.408Z,18.00
2018-02-04T18:41:39.763Z,17.07
2018-02-04T18:46:41.237Z,17.00
2018-02-04T18:51:43.318Z,30.53
2018-02-04T18:56:47.187Z,14.40
2018-02-04T19:01:49.365Z,14.00
2018-02-04T19:06:50.768Z,14.33
2018-02-04T19:11:52.196Z,17.50
2018-02-04T19:16:53.545Z,13.43
2018-02-04T19:21:54.972Z,14.13
2018-02-04T19:26:56.412Z,13.27
2018-02-04T19:31:57.794Z,13.63
2018-02-04T19:36:59.296Z,16.07
2018-02-04T19:42:00.639Z,20.87
2018-02-04T19:47:02.698Z,16.00
2018-02-04T19:52:04.028Z,15.20
2018-02-04T19:57:06.095Z,14.80
2018-02-04T20:02:07.423Z,13.53
2018-02-04T20:07:09.489Z,14.80
2018-02-04T20:12:10.818Z,12.97
2018-02-04T20:17:12.174Z,14.47
2018-02-04T20:22:13.526Z,13.70
2018-02-04T20:27:15.099Z,13.80
2018-02-04T20:32:34.862Z,14.60
2018-02-04T20:37:36.267Z,15.10
2018-02-04T20:42:37.551Z,14.67
2018-02-04T20:47:39.284Z,15.83
2018-02-04T20:52:41.382Z,15.40
2018-02-04T20:57:43.734Z,15.50
2018-02-04T21:02:45.847Z,14.40
2018-02-04T21:07:47.456Z,15.70
2018-02-04T21:12:48.850Z,16.20
2018-02-04T21:17:50.188Z,15.67
2018-02-04T21:22:52.388Z,16.60
2018-02-04T21:27:54.455Z,17.37
2018-02-04T21:32:55.780Z,14.97
2018-02-04T21:37:57.143Z,17.00
2018-02-04T21:42:58.473Z,16.23
2018-02-04T21:47:59.882Z,17.53
2018-02-04T21:53:01.226Z,18.30
2018-02-04T21:58:02.647Z,17.33
2018-02-04T22:03:04.068Z,18.43
2018-02-04T22:08:05.403Z,18.40
2018-02-04T22:13:06.825Z,15.57
2018-02-04T22:18:08.897Z,17.60
2018-02-04T22:23:10.294Z,18.90
2018-02-04T22:28:11.620Z,17.90
2018-02-04T22:33:12.938Z,17.40
2018-02-04T22:38:14.328Z,18.90
2018-02-04T22:43:15.631Z,16.67
2018-02-04T22:48:16.969Z,17.17
2018-02-04T22:53:18.524Z,18.37
2018-02-04T22:58:19.841Z,17.13
2018-02-04T23:03:21.897Z,16.43
2018-02-04T23:08:23.333Z,16.10
2018-02-04T23:13:24.731Z,16.43
2018-02-04T23:18:26.774Z,17.27
2018-02-04T23:23:28.166Z,17.27
2018-02-04T23:28:29.512Z,19.50
2018-02-04T23:33:30.848Z,16.67
2018-02-04T23:38:32.246Z,16.63
2018-02-04T23:43:33.583Z,19.60
2018-02-04T23:48:35.640Z,19.50
2018-02-04T23:53:37.126Z,19.90
2018-02-04T23:58:38.423Z,20.83
